sensor_id;sensor_type;location;lat;lon;timestamp;pressure;altitude;pressure_sealevel;temperature;humidity
74329;BME280;62749;51.982;5.916;2022-12-18T00:01:18;102732.41;;;-3.31;81.10
74329;BME280;62749;51.982;5.916;2022-12-18T00:03:48;102732.03;;;-3.39;81.55
74329;BME280;62749;51.982;5.916;2022-12-18T00:06:19;102725.75;;;-3.44;81.10
74329;BME280;62749;51.982;5.916;2022-12-18T00:08:49;102722.50;;;-3.40;81.82
74329;BME280;62749;51.982;5.916;2022-12-18T00:11:23;102713.03;;;-3.40;81.35
74329;BME280;62749;51.982;5.916;2022-12-18T00:13:55;102707.22;;;-3.35;81.30
74329;BME280;62749;51.982;5.916;2022-12-18T00:16:26;102714.09;;;-3.36;81.24
74329;BME280;62749;51.982;5.916;2022-12-18T00:18:57;102708.09;;;-3.53;80.72
74329;BME280;62749;51.982;5.916;2022-12-18T00:21:28;102714.31;;;-3.67;81.36
74329;BME280;62749;51.982;5.916;2022-12-18T00:23:59;102711.63;;;-3.71;82.35
74329;BME280;62749;51.982;5.916;2022-12-18T00:26:33;102718.09;;;-3.61;81.63
74329;BME280;62749;51.982;5.916;2022-12-18T00:29:06;102711.69;;;-3.69;81.61
74329;BME280;62749;51.982;5.916;2022-12-18T00:31:36;102713.31;;;-3.89;81.83
74329;BME280;62749;51.982;5.916;2022-12-18T00:34:06;102707.09;;;-3.93;82.10
74329;BME280;62749;51.982;5.916;2022-12-18T00:36:38;102701.94;;;-3.93;82.16
74329;BME280;62749;51.982;5.916;2022-12-18T00:39:10;102697.81;;;-3.89;82.19
74329;BME280;62749;51.982;5.916;2022-12-18T00:41:42;102690.06;;;-3.89;82.04
74329;BME280;62749;51.982;5.916;2022-12-18T00:44:24;102698.78;;;-3.87;81.78
74329;BME280;62749;51.982;5.916;2022-12-18T00:46:53;102704.97;;;-3.83;81.68
74329;BME280;62749;51.982;5.916;2022-12-18T00:49:23;102701.50;;;-3.84;81.44
74329;BME280;62749;51.982;5.916;2022-12-18T00:51:52;102707.75;;;-3.79;81.21
74329;BME280;62749;51.982;5.916;2022-12-18T00:54:23;102709.84;;;-3.72;80.62
74329;BME280;62749;51.982;5.916;2022-12-18T00:56:55;102712.50;;;-3.70;80.33
74329;BME280;62749;51.982;5.916;2022-12-18T00:59:25;102713.50;;;-3.66;79.98
74329;BME280;62749;51.982;5.916;2022-12-18T01:01:54;102717.50;;;-3.73;79.91
74329;BME280;62749;51.982;5.916;2022-12-18T01:04:23;102714.91;;;-3.73;80.03
74329;BME280;62749;51.982;5.916;2022-12-18T01:06:53;102712.00;;;-3.81;80.01
74329;BME280;62749;51.982;5.916;2022-12-18T01:09:22;102719.88;;;-3.78;80.58
74329;BME280;62749;51.982;5.916;2022-12-18T01:11:55;102714.78;;;-3.76;79.90
74329;BME280;62749;51.982;5.916;2022-12-18T01:14:24;102701.28;;;-3.89;80.24
74329;BME280;62749;51.982;5.916;2022-12-18T01:16:53;102693.06;;;-3.80;80.06
74329;BME280;62749;51.982;5.916;2022-12-18T01:19:23;102702.16;;;-3.88;80.31
74329;BME280;62749;51.982;5.916;2022-12-18T01:21:52;102693.91;;;-3.81;80.59
74329;BME280;62749;51.982;5.916;2022-12-18T01:24:21;102691.19;;;-3.84;80.28
74329;BME280;62749;51.982;5.916;2022-12-18T01:27:01;102675.91;;;-3.97;80.32
74329;BME280;62749;51.982;5.916;2022-12-18T01:29:31;102659.06;;;-4.07;80.15
74329;BME280;62749;51.982;5.916;2022-12-18T01:32:00;102697.00;;;-3.88;80.30
74329;BME280;62749;51.982;5.916;2022-12-18T01:34:29;102688.13;;;-3.93;80.53
74329;BME280;62749;51.982;5.916;2022-12-18T01:37:02;102691.31;;;-3.99;80.60
74329;BME280;62749;51.982;5.916;2022-12-18T01:39:32;102702.00;;;-3.91;80.34
74329;BME280;62749;51.982;5.916;2022-12-18T01:42:10;102709.09;;;-3.87;79.88
74329;BME280;62749;51.982;5.916;2022-12-18T01:45:01;102712.22;;;-3.94;79.71
74329;BME280;62749;51.982;5.916;2022-12-18T01:47:38;102711.25;;;-3.96;80.15
74329;BME280;62749;51.982;5.916;2022-12-18T01:50:12;102715.72;;;-3.92;80.06
74329;BME280;62749;51.982;5.916;2022-12-18T01:52:45;102704.47;;;-3.94;79.73
74329;BME280;62749;51.982;5.916;2022-12-18T01:55:19;102698.78;;;-3.87;79.67
74329;BME280;62749;51.982;5.916;2022-12-18T01:57:54;102699.38;;;-3.93;79.50
74329;BME280;62749;51.982;5.916;2022-12-18T02:00:25;102701.88;;;-3.94;79.60
74329;BME280;62749;51.982;5.916;2022-12-18T02:02:55;102697.38;;;-3.98;79.29
74329;BME280;62749;51.982;5.916;2022-12-18T02:05:36;102702.38;;;-4.02;79.71
74329;BME280;62749;51.982;5.916;2022-12-18T02:08:14;102712.72;;;-4.02;79.65
74329;BME280;62749;51.982;5.916;2022-12-18T02:10:57;102714.53;;;-3.99;79.58
74329;BME280;62749;51.982;5.916;2022-12-18T02:13:39;102719.59;;;-4.02;79.25
74329;BME280;62749;51.982;5.916;2022-12-18T02:16:19;102714.63;;;-3.97;79.48
74329;BME280;62749;51.982;5.916;2022-12-18T02:18:56;102714.84;;;-3.93;79.34
74329;BME280;62749;51.982;5.916;2022-12-18T02:21:38;102712.06;;;-3.97;79.38
74329;BME280;62749;51.982;5.916;2022-12-18T02:24:29;102712.72;;;-4.02;79.36
74329;BME280;62749;51.982;5.916;2022-12-18T02:27:07;102703.72;;;-4.10;79.44
74329;BME280;62749;51.982;5.916;2022-12-18T02:29:43;102703.72;;;-4.10;79.16
74329;BME280;62749;51.982;5.916;2022-12-18T02:32:17;102701.50;;;-4.02;79.28
74329;BME280;62749;51.982;5.916;2022-12-18T02:34:51;102698.03;;;-4.03;78.85
74329;BME280;62749;51.982;5.916;2022-12-18T02:37:23;102701.19;;;-4.08;79.16
74329;BME280;62749;51.982;5.916;2022-12-18T02:39:57;102700.38;;;-4.07;79.26
74329;BME280;62749;51.982;5.916;2022-12-18T02:42:32;102716.00;;;-4.22;79.08
74329;BME280;62749;51.982;5.916;2022-12-18T02:45:02;102713.22;;;-4.27;79.63
74329;BME280;62749;51.982;5.916;2022-12-18T02:47:36;102703.53;;;-4.31;80.14
74329;BME280;62749;51.982;5.916;2022-12-18T02:50:16;102705.88;;;-4.36;80.12
74329;BME280;62749;51.982;5.916;2022-12-18T02:52:55;102712.00;;;-4.34;79.87
74329;BME280;62749;51.982;5.916;2022-12-18T02:55:42;102702.72;;;-4.30;79.67
74329;BME280;62749;51.982;5.916;2022-12-18T02:58:26;102687.28;;;-4.28;80.09
74329;BME280;62749;51.982;5.916;2022-12-18T03:01:01;102699.72;;;-4.21;79.57
74329;BME280;62749;51.982;5.916;2022-12-18T03:03:38;102696.97;;;-4.24;79.29
74329;BME280;62749;51.982;5.916;2022-12-18T03:06:14;102697.84;;;-4.24;79.28
74329;BME280;62749;51.982;5.916;2022-12-18T03:08:54;102688.19;;;-4.28;79.01
74329;BME280;62749;51.982;5.916;2022-12-18T03:11:30;102687.22;;;-4.30;78.98
74329;BME280;62749;51.982;5.916;2022-12-18T03:14:20;102682.13;;;-4.28;79.06
74329;BME280;62749;51.982;5.916;2022-12-18T03:16:54;102676.97;;;-4.28;79.38
74329;BME280;62749;51.982;5.916;2022-12-18T03:19:29;102686.50;;;-4.27;79.12
74329;BME280;62749;51.982;5.916;2022-12-18T03:22:04;102677.78;;;-4.29;79.20
74329;BME280;62749;51.982;5.916;2022-12-18T03:24:37;102677.06;;;-4.27;79.13
74329;BME280;62749;51.982;5.916;2022-12-18T03:27:12;102674.00;;;-4.36;78.96
74329;BME280;62749;51.982;5.916;2022-12-18T03:29:48;102680.53;;;-4.26;78.93
74329;BME280;62749;51.982;5.916;2022-12-18T03:32:25;102683.69;;;-4.32;79.09
74329;BME280;62749;51.982;5.916;2022-12-18T03:35:01;102672.56;;;-4.31;78.87
74329;BME280;62749;51.982;5.916;2022-12-18T03:37:33;102663.84;;;-4.33;79.07
74329;BME280;62749;51.982;5.916;2022-12-18T03:40:03;102659.34;;;-4.37;78.43
74329;BME280;62749;51.982;5.916;2022-12-18T03:42:44;102664.16;;;-4.27;78.44
74329;BME280;62749;51.982;5.916;2022-12-18T03:45:23;102657.28;;;-4.26;78.21
74329;BME280;62749;51.982;5.916;2022-12-18T03:48:03;102663.69;;;-4.36;78.32
74329;BME280;62749;51.982;5.916;2022-12-18T03:50:41;102664.50;;;-4.37;78.30
74329;BME280;62749;51.982;5.916;2022-12-18T03:53:22;102650.78;;;-4.36;78.59
74329;BME280;62749;51.982;5.916;2022-12-18T03:55:56;102643.72;;;-4.40;78.12
74329;BME280;62749;51.982;5.916;2022-12-18T03:58:29;102651.69;;;-4.36;78.45
74329;BME280;62749;51.982;5.916;2022-12-18T04:01:08;102649.25;;;-4.33;78.52
74329;BME280;62749;51.982;5.916;2022-12-18T04:03:39;102643.56;;;-4.43;78.11
74329;BME280;62749;51.982;5.916;2022-12-18T04:06:11;102632.13;;;-4.49;78.40
74329;BME280;62749;51.982;5.916;2022-12-18T04:08:42;102653.88;;;-4.43;78.35
74329;BME280;62749;51.982;5.916;2022-12-18T04:11:12;102654.91;;;-4.40;78.65
74329;BME280;62749;51.982;5.916;2022-12-18T04:13:42;102658.25;;;-4.24;77.85
74329;BME280;62749;51.982;5.916;2022-12-18T04:16:14;102647.72;;;-4.29;78.03
74329;BME280;62749;51.982;5.916;2022-12-18T04:18:43;102642.94;;;-4.21;77.79
74329;BME280;62749;51.982;5.916;2022-12-18T04:21:13;102649.91;;;-4.19;77.57
74329;BME280;62749;51.982;5.916;2022-12-18T04:23:42;102644.38;;;-4.26;77.75
74329;BME280;62749;51.982;5.916;2022-12-18T04:26:11;102636.19;;;-4.36;78.12
74329;BME280;62749;51.982;5.916;2022-12-18T04:28:41;102638.63;;;-4.39;78.11
74329;BME280;62749;51.982;5.916;2022-12-18T04:31:10;102640.56;;;-4.35;78.07
74329;BME280;62749;51.982;5.916;2022-12-18T04:33:42;102631.84;;;-4.37;78.08
74329;BME280;62749;51.982;5.916;2022-12-18T04:36:11;102627.44;;;-4.39;78.51
74329;BME280;62749;51.982;5.916;2022-12-18T04:38:41;102624.91;;;-4.38;78.38
74329;BME280;62749;51.982;5.916;2022-12-18T04:41:10;102621.72;;;-4.50;78.28
74329;BME280;62749;51.982;5.916;2022-12-18T04:43:40;102631.91;;;-4.35;78.02
74329;BME280;62749;51.982;5.916;2022-12-18T04:46:09;102620.41;;;-4.42;78.14
74329;BME280;62749;51.982;5.916;2022-12-18T04:48:41;102628.84;;;-4.28;77.92
74329;BME280;62749;51.982;5.916;2022-12-18T04:51:11;102607.22;;;-4.48;77.78
74329;BME280;62749;51.982;5.916;2022-12-18T04:53:40;102637.38;;;-4.29;77.40
74329;BME280;62749;51.982;5.916;2022-12-18T04:56:12;102632.94;;;-4.32;77.75
74329;BME280;62749;51.982;5.916;2022-12-18T04:58:43;102640.69;;;-4.32;77.44
74329;BME280;62749;51.982;5.916;2022-12-18T05:01:15;102635.44;;;-4.33;77.53
74329;BME280;62749;51.982;5.916;2022-12-18T05:03:47;102638.94;;;-4.33;77.60
74329;BME280;62749;51.982;5.916;2022-12-18T05:06:17;102626.59;;;-4.38;77.78
74329;BME280;62749;51.982;5.916;2022-12-18T05:08:46;102640.63;;;-4.33;77.70
74329;BME280;62749;51.982;5.916;2022-12-18T05:11:16;102646.09;;;-4.27;77.65
74329;BME280;62749;51.982;5.916;2022-12-18T05:13:45;102642.13;;;-4.20;77.38
74329;BME280;62749;51.982;5.916;2022-12-18T05:16:15;102655.97;;;-4.18;76.91
74329;BME280;62749;51.982;5.916;2022-12-18T05:18:47;102663.06;;;-4.14;77.06
74329;BME280;62749;51.982;5.916;2022-12-18T05:21:16;102663.22;;;-4.11;77.21
74329;BME280;62749;51.982;5.916;2022-12-18T05:23:46;102660.41;;;-4.16;76.71
74329;BME280;62749;51.982;5.916;2022-12-18T05:26:17;102661.44;;;-4.12;76.89
74329;BME280;62749;51.982;5.916;2022-12-18T05:28:47;102679.78;;;-4.06;76.66
74329;BME280;62749;51.982;5.916;2022-12-18T05:31:16;102690.88;;;-4.08;76.84
74329;BME280;62749;51.982;5.916;2022-12-18T05:33:48;102692.56;;;-4.09;76.86
74329;BME280;62749;51.982;5.916;2022-12-18T05:36:17;102687.41;;;-4.09;76.93
74329;BME280;62749;51.982;5.916;2022-12-18T05:38:47;102703.03;;;-4.06;76.67
74329;BME280;62749;51.982;5.916;2022-12-18T05:41:16;102701.13;;;-4.10;76.66
74329;BME280;62749;51.982;5.916;2022-12-18T05:43:46;102706.19;;;-4.11;76.73
74329;BME280;62749;51.982;5.916;2022-12-18T05:46:17;102704.75;;;-4.06;76.71
74329;BME280;62749;51.982;5.916;2022-12-18T05:48:49;102702.16;;;-4.06;76.31
74329;BME280;62749;51.982;5.916;2022-12-18T05:51:21;102697.75;;;-4.09;76.28
74329;BME280;62749;51.982;5.916;2022-12-18T05:53:51;102691.66;;;-4.09;76.58
74329;BME280;62749;51.982;5.916;2022-12-18T05:56:22;102684.72;;;-4.10;76.75
74329;BME280;62749;51.982;5.916;2022-12-18T05:58:53;102668.38;;;-4.11;76.97
74329;BME280;62749;51.982;5.916;2022-12-18T06:01:25;102667.47;;;-4.11;76.49
74329;BME280;62749;51.982;5.916;2022-12-18T06:03:57;102671.75;;;-4.12;76.83
74329;BME280;62749;51.982;5.916;2022-12-18T06:06:27;102651.75;;;-4.16;76.75
74329;BME280;62749;51.982;5.916;2022-12-18T06:08:57;102643.56;;;-4.25;76.74
74329;BME280;62749;51.982;5.916;2022-12-18T06:11:27;102653.16;;;-4.23;76.55
74329;BME280;62749;51.982;5.916;2022-12-18T06:13:57;102648.09;;;-4.21;76.93
74329;BME280;62749;51.982;5.916;2022-12-18T06:16:26;102644.00;;;-4.16;76.85
74329;BME280;62749;51.982;5.916;2022-12-18T06:19:00;102637.38;;;-4.11;76.87
74329;BME280;62749;51.982;5.916;2022-12-18T06:21:31;102634.50;;;-4.17;76.93
74329;BME280;62749;51.982;5.916;2022-12-18T06:24:01;102640.94;;;-4.09;76.53
74329;BME280;62749;51.982;5.916;2022-12-18T06:26:30;102640.25;;;-4.05;76.53
74329;BME280;62749;51.982;5.916;2022-12-18T06:28:59;102643.53;;;-4.09;76.70
74329;BME280;62749;51.982;5.916;2022-12-18T06:31:29;102636.50;;;-4.11;76.40
74329;BME280;62749;51.982;5.916;2022-12-18T06:34:02;102627.06;;;-4.11;76.61
74329;BME280;62749;51.982;5.916;2022-12-18T06:36:31;102621.97;;;-4.09;76.42
74329;BME280;62749;51.982;5.916;2022-12-18T06:39:01;102620.19;;;-4.10;76.47
74329;BME280;62749;51.982;5.916;2022-12-18T06:41:30;102616.75;;;-4.11;77.14
74329;BME280;62749;51.982;5.916;2022-12-18T06:44:00;102622.50;;;-4.17;76.54
74329;BME280;62749;51.982;5.916;2022-12-18T06:46:29;102625.13;;;-4.15;76.93
74329;BME280;62749;51.982;5.916;2022-12-18T06:49:01;102619.00;;;-4.17;76.75
74329;BME280;62749;51.982;5.916;2022-12-18T06:51:30;102623.34;;;-4.16;76.96
74329;BME280;62749;51.982;5.916;2022-12-18T06:54:00;102611.78;;;-4.06;76.65
74329;BME280;62749;51.982;5.916;2022-12-18T06:56:29;102604.78;;;-4.09;76.29
74329;BME280;62749;51.982;5.916;2022-12-18T06:58:59;102603.88;;;-4.09;76.63
74329;BME280;62749;51.982;5.916;2022-12-18T07:01:28;102599.75;;;-4.06;76.82
74329;BME280;62749;51.982;5.916;2022-12-18T07:04:00;102589.56;;;-4.03;76.44
74329;BME280;62749;51.982;5.916;2022-12-18T07:06:30;102594.88;;;-3.99;76.23
74329;BME280;62749;51.982;5.916;2022-12-18T07:08:59;102593.72;;;-4.06;76.43
74329;BME280;62749;51.982;5.916;2022-12-18T07:11:29;102585.97;;;-4.06;76.47
74329;BME280;62749;51.982;5.916;2022-12-18T07:13:58;102582.38;;;-4.10;76.53
74329;BME280;62749;51.982;5.916;2022-12-18T07:16:27;102599.03;;;-4.03;76.20
74329;BME280;62749;51.982;5.916;2022-12-18T07:18:57;102603.59;;;-3.97;76.13
74329;BME280;62749;51.982;5.916;2022-12-18T07:21:29;102599.44;;;-3.94;76.34
74329;BME280;62749;51.982;5.916;2022-12-18T07:23:58;102595.63;;;-4.02;76.19
74329;BME280;62749;51.982;5.916;2022-12-18T07:26:28;102597.09;;;-4.07;76.37
74329;BME280;62749;51.982;5.916;2022-12-18T07:28:57;102598.34;;;-3.99;76.33
74329;BME280;62749;51.982;5.916;2022-12-18T07:31:27;102600.00;;;-4.01;76.15
74329;BME280;62749;51.982;5.916;2022-12-18T07:33:56;102597.63;;;-3.96;76.46
74329;BME280;62749;51.982;5.916;2022-12-18T07:36:26;102599.97;;;-3.83;76.22
74329;BME280;62749;51.982;5.916;2022-12-18T07:38:58;102593.69;;;-3.88;76.17
74329;BME280;62749;51.982;5.916;2022-12-18T07:41:27;102582.41;;;-3.90;75.94
74329;BME280;62749;51.982;5.916;2022-12-18T07:43:56;102576.56;;;-3.86;76.08
74329;BME280;62749;51.982;5.916;2022-12-18T07:46:26;102563.66;;;-3.86;75.93
74329;BME280;62749;51.982;5.916;2022-12-18T07:48:55;102541.00;;;-3.92;76.01
74329;BME280;62749;51.982;5.916;2022-12-18T07:51:25;102557.28;;;-3.75;75.54
74329;BME280;62749;51.982;5.916;2022-12-18T07:53:54;102552.06;;;-3.76;75.90
74329;BME280;62749;51.982;5.916;2022-12-18T07:56:26;102556.31;;;-3.77;75.85
74329;BME280;62749;51.982;5.916;2022-12-18T07:58:56;102542.94;;;-3.68;75.69
74329;BME280;62749;51.982;5.916;2022-12-18T08:01:26;102546.19;;;-3.72;75.54
74329;BME280;62749;51.982;5.916;2022-12-18T08:03:57;102553.06;;;-3.73;75.82
74329;BME280;62749;51.982;5.916;2022-12-18T08:06:26;102562.13;;;-3.63;75.73
74329;BME280;62749;51.982;5.916;2022-12-18T08:08:56;102548.31;;;-3.63;75.57
74329;BME280;62749;51.982;5.916;2022-12-18T08:11:29;102543.22;;;-3.62;75.76
74329;BME280;62749;51.982;5.916;2022-12-18T08:13:58;102534.91;;;-3.55;75.23
74329;BME280;62749;51.982;5.916;2022-12-18T08:16:28;102533.34;;;-3.51;75.41
74329;BME280;62749;51.982;5.916;2022-12-18T08:18:57;102541.38;;;-3.45;74.85
74329;BME280;62749;51.982;5.916;2022-12-18T08:21:29;102530.75;;;-3.51;75.06
74329;BME280;62749;51.982;5.916;2022-12-18T08:24:00;102530.16;;;-3.45;75.37
74329;BME280;62749;51.982;5.916;2022-12-18T08:26:32;102541.50;;;-3.42;74.71
74329;BME280;62749;51.982;5.916;2022-12-18T08:29:01;102541.59;;;-3.40;74.80
74329;BME280;62749;51.982;5.916;2022-12-18T08:31:31;102533.16;;;-3.36;74.95
74329;BME280;62749;51.982;5.916;2022-12-18T08:34:00;102530.63;;;-3.34;74.70
74329;BME280;62749;51.982;5.916;2022-12-18T08:36:30;102523.13;;;-3.28;74.72
74329;BME280;62749;51.982;5.916;2022-12-18T08:38:59;102523.00;;;-3.31;74.63
74329;BME280;62749;51.982;5.916;2022-12-18T08:41:31;102527.47;;;-3.27;74.79
74329;BME280;62749;51.982;5.916;2022-12-18T08:44:01;102529.66;;;-3.17;75.06
74329;BME280;62749;51.982;5.916;2022-12-18T08:46:43;102540.44;;;-3.06;74.76
74329;BME280;62749;51.982;5.916;2022-12-18T08:49:13;102534.44;;;-3.05;74.21
74329;BME280;62749;51.982;5.916;2022-12-18T08:51:43;102533.44;;;-3.09;74.26
74329;BME280;62749;51.982;5.916;2022-12-18T08:54:12;102532.53;;;-3.09;74.44
74329;BME280;62749;51.982;5.916;2022-12-18T08:56:44;102537.72;;;-3.09;74.79
74329;BME280;62749;51.982;5.916;2022-12-18T08:59:25;102534.59;;;-3.02;74.73
74329;BME280;62749;51.982;5.916;2022-12-18T09:01:54;102538.16;;;-2.98;74.42
74329;BME280;62749;51.982;5.916;2022-12-18T09:04:24;102528.19;;;-2.89;74.18
74329;BME280;62749;51.982;5.916;2022-12-18T09:06:53;102534.78;;;-2.76;74.36
74329;BME280;62749;51.982;5.916;2022-12-18T09:09:23;102534.28;;;-2.67;74.02
74329;BME280;62749;51.982;5.916;2022-12-18T09:11:54;102532.88;;;-2.59;73.73
74329;BME280;62749;51.982;5.916;2022-12-18T09:14:24;102532.19;;;-2.55;73.76
74329;BME280;62749;51.982;5.916;2022-12-18T09:16:53;102534.44;;;-2.41;73.48
74329;BME280;62749;51.982;5.916;2022-12-18T09:19:23;102526.84;;;-2.37;73.38
74329;BME280;62749;51.982;5.916;2022-12-18T09:21:52;102528.91;;;-2.28;73.01
74329;BME280;62749;51.982;5.916;2022-12-18T09:24:23;102521.63;;;-2.16;73.02
74329;BME280;62749;51.982;5.916;2022-12-18T09:26:55;102511.47;;;-2.09;72.44
74329;BME280;62749;51.982;5.916;2022-12-18T09:29:25;102517.13;;;-1.97;72.48
74329;BME280;62749;51.982;5.916;2022-12-18T09:31:54;102523.41;;;-1.90;72.26
74329;BME280;62749;51.982;5.916;2022-12-18T09:34:24;102517.50;;;-1.88;71.69
74329;BME280;62749;51.982;5.916;2022-12-18T09:36:53;102523.13;;;-1.75;71.47
74329;BME280;62749;51.982;5.916;2022-12-18T09:39:23;102519.88;;;-1.70;70.94
74329;BME280;62749;51.982;5.916;2022-12-18T09:41:57;102513.66;;;-1.73;70.92
74329;BME280;62749;51.982;5.916;2022-12-18T09:44:30;102523.38;;;-1.67;70.89
74329;BME280;62749;51.982;5.916;2022-12-18T09:47:10;102530.41;;;-1.65;70.51
74329;BME280;62749;51.982;5.916;2022-12-18T09:49:43;102510.88;;;-1.55;70.29
74329;BME280;62749;51.982;5.916;2022-12-18T09:52:19;102505.09;;;-1.48;69.80
74329;BME280;62749;51.982;5.916;2022-12-18T09:54:55;102513.06;;;-1.42;70.37
74329;BME280;62749;51.982;5.916;2022-12-18T09:57:35;102509.22;;;-1.53;69.89
74329;BME280;62749;51.982;5.916;2022-12-18T10:00:16;102501.69;;;-1.45;69.63
74329;BME280;62749;51.982;5.916;2022-12-18T10:02:48;102498.94;;;-1.50;70.02
74329;BME280;62749;51.982;5.916;2022-12-18T10:05:30;102488.53;;;-1.51;70.05
74329;BME280;62749;51.982;5.916;2022-12-18T10:08:12;102486.38;;;-1.39;69.88
74329;BME280;62749;51.982;5.916;2022-12-18T10:10:47;102476.88;;;-1.39;69.92
74329;BME280;62749;51.982;5.916;2022-12-18T10:13:29;102487.63;;;-1.28;70.20
74329;BME280;62749;51.982;5.916;2022-12-18T10:16:09;102497.22;;;-1.25;69.71
74329;BME280;62749;51.982;5.916;2022-12-18T10:19:01;102475.84;;;-1.18;69.64
74329;BME280;62749;51.982;5.916;2022-12-18T10:21:41;102476.00;;;-1.13;69.42
74329;BME280;62749;51.982;5.916;2022-12-18T10:24:22;102470.19;;;-1.06;69.35
74329;BME280;62749;51.982;5.916;2022-12-18T10:26:59;102465.53;;;-1.16;69.39
74329;BME280;62749;51.982;5.916;2022-12-18T10:29:43;102462.06;;;-1.17;69.39
74329;BME280;62749;51.982;5.916;2022-12-18T10:32:20;102455.50;;;-1.05;69.72
74329;BME280;62749;51.982;5.916;2022-12-18T10:34:51;102449.84;;;-1.19;69.86
74329;BME280;62749;51.982;5.916;2022-12-18T10:37:23;102453.75;;;-1.06;69.55
74329;BME280;62749;51.982;5.916;2022-12-18T10:40:09;102453.06;;;-1.01;69.24
74329;BME280;62749;51.982;5.916;2022-12-18T10:42:39;102456.63;;;-0.97;69.17
74329;BME280;62749;51.982;5.916;2022-12-18T10:45:14;102444.75;;;-0.90;68.86
74329;BME280;62749;51.982;5.916;2022-12-18T10:47:47;102444.09;;;-0.83;68.45
74329;BME280;62749;51.982;5.916;2022-12-18T10:50:24;102432.59;;;-0.91;68.03
74329;BME280;62749;51.982;5.916;2022-12-18T10:52:58;102430.50;;;-0.76;69.05
74329;BME280;62749;51.982;5.916;2022-12-18T10:55:32;102426.50;;;-0.65;68.38
74329;BME280;62749;51.982;5.916;2022-12-18T10:58:24;102425.81;;;-0.59;68.15
74329;BME280;62749;51.982;5.916;2022-12-18T11:01:11;102406.56;;;-0.66;67.86
74329;BME280;62749;51.982;5.916;2022-12-18T11:03:43;102416.38;;;-0.55;67.31
74329;BME280;62749;51.982;5.916;2022-12-18T11:06:15;102420.19;;;-0.44;67.31
74329;BME280;62749;51.982;5.916;2022-12-18T11:08:58;102410.63;;;-0.45;66.71
74329;BME280;62749;51.982;5.916;2022-12-18T11:11:28;102419.56;;;-0.35;66.33
74329;BME280;62749;51.982;5.916;2022-12-18T11:14:02;102406.91;;;-0.55;66.31
74329;BME280;62749;51.982;5.916;2022-12-18T11:16:43;102409.53;;;-0.53;66.13
74329;BME280;62749;51.982;5.916;2022-12-18T11:19:26;102411.25;;;-0.54;66.18
74329;BME280;62749;51.982;5.916;2022-12-18T11:21:58;102395.97;;;-0.43;66.22
74329;BME280;62749;51.982;5.916;2022-12-18T11:24:31;102393.38;;;-0.43;65.90
74329;BME280;62749;51.982;5.916;2022-12-18T11:27:03;102394.66;;;-0.28;65.53
74329;BME280;62749;51.982;5.916;2022-12-18T11:29:37;102385.16;;;-0.28;65.35
74329;BME280;62749;51.982;5.916;2022-12-18T11:32:25;102375.31;;;-0.40;65.54
74329;BME280;62749;51.982;5.916;2022-12-18T11:35:02;102367.63;;;-0.35;65.40
74329;BME280;62749;51.982;5.916;2022-12-18T11:37:36;102357.34;;;-0.32;65.23
74329;BME280;62749;51.982;5.916;2022-12-18T11:40:13;102359.22;;;-0.26;65.40
74329;BME280;62749;51.982;5.916;2022-12-18T11:42:50;102366.28;;;-0.22;65.69
74329;BME280;62749;51.982;5.916;2022-12-18T11:45:28;102375.91;;;-0.18;65.71
74329;BME280;62749;51.982;5.916;2022-12-18T11:48:05;102375.25;;;-0.11;65.00
74329;BME280;62749;51.982;5.916;2022-12-18T11:50:46;102372.34;;;-0.22;65.08
74329;BME280;62749;51.982;5.916;2022-12-18T11:53:19;102366.75;;;-0.05;64.93
74329;BME280;62749;51.982;5.916;2022-12-18T11:56:03;102359.88;;;-0.03;64.58
74329;BME280;62749;51.982;5.916;2022-12-18T11:58:46;102363.47;;;0.02;64.55
74329;BME280;62749;51.982;5.916;2022-12-18T12:01:30;102347.09;;;0.05;64.51
74329;BME280;62749;51.982;5.916;2022-12-18T12:04:27;102340.25;;;0.08;64.28
74329;BME280;62749;51.982;5.916;2022-12-18T12:07:12;102337.72;;;0.11;64.48
74329;BME280;62749;51.982;5.916;2022-12-18T12:09:56;102335.16;;;0.13;64.39
74329;BME280;62749;51.982;5.916;2022-12-18T12:12:51;102322.91;;;0.09;64.27
74329;BME280;62749;51.982;5.916;2022-12-18T12:15:34;102326.50;;;0.12;64.07
74329;BME280;62749;51.982;5.916;2022-12-18T12:18:20;102322.25;;;0.16;64.30
74329;BME280;62749;51.982;5.916;2022-12-18T12:21:05;102313.41;;;0.09;64.62
74329;BME280;62749;51.982;5.916;2022-12-18T12:23:46;102309.16;;;0.13;63.96
74329;BME280;62749;51.982;5.916;2022-12-18T12:26:27;102297.63;;;0.02;64.63
74329;BME280;62749;51.982;5.916;2022-12-18T12:29:15;102313.66;;;0.20;64.43
74329;BME280;62749;51.982;5.916;2022-12-18T12:32:02;102312.00;;;0.22;63.71
74329;BME280;62749;51.982;5.916;2022-12-18T12:34:43;102313.00;;;0.27;63.00
74329;BME280;62749;51.982;5.916;2022-12-18T12:37:36;102314.78;;;0.30;63.99
74329;BME280;62749;51.982;5.916;2022-12-18T12:40:16;102304.19;;;0.22;63.20
74329;BME280;62749;51.982;5.916;2022-12-18T12:42:52;102295.63;;;0.26;63.32
74329;BME280;62749;51.982;5.916;2022-12-18T12:45:42;102288.06;;;0.36;63.55
74329;BME280;62749;51.982;5.916;2022-12-18T12:48:31;102291.59;;;0.39;63.45
74329;BME280;62749;51.982;5.916;2022-12-18T12:51:10;102285.53;;;0.39;62.97
74329;BME280;62749;51.982;5.916;2022-12-18T12:53:43;102275.13;;;0.39;63.13
74329;BME280;62749;51.982;5.916;2022-12-18T12:56:17;102279.31;;;0.32;63.34
74329;BME280;62749;51.982;5.916;2022-12-18T12:58:58;102275.13;;;0.37;63.00
74329;BME280;62749;51.982;5.916;2022-12-18T13:01:38;102265.66;;;0.41;62.82
74329;BME280;62749;51.982;5.916;2022-12-18T13:04:21;102258.59;;;0.35;63.11
74329;BME280;62749;51.982;5.916;2022-12-18T13:06:59;102253.53;;;0.41;62.16
74329;BME280;62749;51.982;5.916;2022-12-18T13:09:34;102259.69;;;0.45;62.04
74329;BME280;62749;51.982;5.916;2022-12-18T13:12:23;102245.69;;;0.38;62.69
74329;BME280;62749;51.982;5.916;2022-12-18T13:15:19;102240.34;;;0.34;62.57
74329;BME280;62749;51.982;5.916;2022-12-18T13:18:10;102250.97;;;0.43;62.63
74329;BME280;62749;51.982;5.916;2022-12-18T13:20:43;102244.09;;;0.45;62.06
74329;BME280;62749;51.982;5.916;2022-12-18T13:23:28;102243.94;;;0.39;62.12
74329;BME280;62749;51.982;5.916;2022-12-18T13:26:30;102241.91;;;0.27;63.15